createdAt,value
2019-03-21T00:02:08.250Z,10.20
2019-03-21T00:04:41.517Z,10.20
2019-03-21T00:07:11.876Z,10.20
2019-03-21T00:10:03.055Z,10.20
2019-03-21T00:12:33.411Z,10.30
2019-03-21T00:15:10.903Z,10.30
2019-03-21T00:17:46.270Z,10.20
2019-03-21T00:20:18.268Z,10.20
2019-03-21T00:22:48.669Z,10.20
2019-03-21T00:25:25.132Z,10.20
2019-03-21T00:27:55.535Z,10.20
2019-03-21T00:30:27.615Z,10.20
2019-03-21T00:32:59.113Z,10.20
2019-03-21T00:35:29.494Z,10.20
2019-03-21T00:37:59.855Z,10.20
2019-03-21T00:40:34.220Z,10.20
2019-03-21T00:43:09.724Z,10.20
2019-03-21T00:45:40.111Z,10.20
2019-03-21T00:48:14.284Z,10.20
2019-03-21T00:50:44.668Z,10.20
2019-03-21T00:53:15.039Z,10.20
2019-03-21T00:55:50.433Z,10.20
2019-03-21T00:58:40.342Z,10.20
2019-03-21T01:01:11.146Z,10.20
2019-03-21T01:03:41.507Z,10.10
2019-03-21T01:06:11.897Z,10.10
2019-03-21T01:08:42.252Z,10.20
2019-03-21T01:11:12.642Z,10.10
2019-03-21T01:13:43.005Z,10.20
2019-03-21T01:16:13.399Z,10.20
2019-03-21T01:18:46.874Z,10.10
2019-03-21T01:21:17.256Z,10.20
2019-03-21T01:23:47.625Z,10.10
2019-03-21T01:26:18.015Z,10.10
2019-03-21T01:28:48.387Z,10.10
2019-03-21T01:31:18.779Z,10.10
2019-03-21T01:33:49.148Z,10.10
2019-03-21T01:36:22.551Z,10.10
2019-03-21T01:38:52.920Z,10.10
2019-03-21T01:41:23.316Z,10.10
2019-03-21T01:43:53.682Z,10.10
2019-03-21T01:46:26.474Z,10.10
2019-03-21T01:48:57.103Z,10.00
2019-03-21T01:51:27.499Z,10.00
2019-03-21T01:53:57.860Z,10.00
2019-03-21T01:56:30.765Z,10.00
2019-03-21T01:59:01.170Z,10.00
2019-03-21T02:01:31.560Z,10.00
2019-03-21T02:04:01.921Z,10.00
2019-03-21T02:06:32.310Z,10.00
2019-03-21T02:09:03.386Z,10.00
2019-03-21T02:11:33.770Z,10.00
2019-03-21T02:14:04.139Z,10.00
2019-03-21T02:16:34.523Z,10.00
2019-03-21T02:19:04.880Z,10.00
2019-03-21T02:21:35.272Z,10.00
2019-03-21T02:24:06.272Z,10.00
2019-03-21T02:26:36.667Z,10.00
2019-03-21T02:29:07.037Z,10.00
2019-03-21T02:31:37.435Z,10.00
2019-03-21T02:34:07.866Z,10.00
2019-03-21T02:36:38.494Z,10.00
2019-03-21T02:39:09.012Z,10.00
2019-03-21T02:41:39.401Z,10.00
2019-03-21T02:44:09.775Z,10.00
2019-03-21T02:46:40.156Z,10.00
2019-03-21T02:49:10.535Z,10.00
2019-03-21T02:51:40.913Z,10.00
2019-03-21T02:54:11.275Z,10.00
2019-03-21T02:56:41.675Z,10.00
2019-03-21T02:59:12.042Z,10.00
2019-03-21T03:01:42.442Z,10.00
2019-03-21T03:04:12.796Z,10.00
2019-03-21T03:06:43.179Z,10.00
2019-03-21T03:09:13.547Z,10.00
2019-03-21T03:11:44.121Z,10.00
2019-03-21T03:14:14.498Z,10.00
2019-03-21T03:16:44.886Z,10.00
2019-03-21T03:19:15.251Z,10.00
2019-03-21T03:21:45.627Z,10.00
2019-03-21T03:24:16.260Z,10.00
2019-03-21T03:26:46.633Z,10.00
2019-03-21T03:29:17.015Z,9.90
2019-03-21T03:31:47.375Z,9.90
2019-03-21T03:34:17.764Z,9.90
2019-03-21T03:36:48.104Z,9.90
2019-03-21T03:39:18.484Z,9.90
2019-03-21T03:42:08.243Z,9.90
2019-03-21T03:44:38.621Z,9.90
2019-03-21T03:47:08.987Z,9.90
2019-03-21T03:49:39.380Z,9.90
2019-03-21T03:52:09.742Z,9.90
2019-03-21T03:54:40.120Z,9.80
2019-03-21T03:57:10.481Z,9.90
2019-03-21T03:59:40.863Z,9.90
2019-03-21T04:02:11.216Z,9.90
2019-03-21T04:04:41.673Z,9.90
2019-03-21T04:07:12.207Z,9.90
2019-03-21T04:09:42.585Z,9.90
2019-03-21T04:12:13.274Z,9.90
2019-03-21T04:14:43.662Z,9.90
2019-03-21T04:17:14.027Z,9.90
2019-03-21T04:19:44.412Z,9.90
2019-03-21T04:22:14.779Z,9.90
2019-03-21T04:24:45.262Z,9.90
2019-03-21T04:27:15.619Z,9.90
2019-03-21T04:29:45.995Z,9.90
2019-03-21T04:32:16.365Z,9.90
2019-03-21T04:34:46.743Z,9.90
2019-03-21T04:37:17.103Z,9.90
2019-03-21T04:39:47.491Z,9.80
2019-03-21T04:42:17.840Z,9.90
2019-03-21T04:44:48.227Z,9.90
2019-03-21T04:47:18.578Z,9.90
2019-03-21T04:49:48.964Z,9.90
2019-03-21T04:52:19.321Z,9.90
2019-03-21T04:54:49.714Z,9.90
2019-03-21T04:57:20.069Z,9.80
2019-03-21T04:59:50.450Z,9.80
2019-03-21T05:02:21.043Z,9.80
2019-03-21T05:04:51.426Z,9.90
2019-03-21T05:07:21.787Z,9.80
2019-03-21T05:09:53.141Z,9.80
2019-03-21T05:12:23.506Z,9.80
2019-03-21T05:14:53.894Z,9.90
2019-03-21T05:17:24.258Z,9.90
2019-03-21T05:19:54.642Z,9.90
2019-03-21T05:22:25.064Z,9.80
2019-03-21T05:24:55.449Z,9.90
2019-03-21T05:27:25.820Z,9.90
2019-03-21T05:29:56.221Z,9.90
2019-03-21T05:32:26.580Z,9.90
2019-03-21T05:34:56.982Z,9.90
2019-03-21T05:37:27.345Z,9.90
2019-03-21T05:39:57.721Z,9.90
2019-03-21T05:42:28.104Z,9.90
2019-03-21T05:44:58.571Z,9.90
2019-03-21T05:47:28.967Z,10.00
2019-03-21T05:49:59.336Z,10.00
2019-03-21T05:52:29.728Z,10.00
2019-03-21T05:55:00.125Z,10.10
2019-03-21T05:57:30.553Z,10.10
2019-03-21T06:00:00.926Z,10.10
2019-03-21T06:02:31.315Z,10.10
2019-03-21T06:05:01.678Z,10.20
2019-03-21T06:07:33.683Z,10.20
2019-03-21T06:10:10.315Z,10.20
2019-03-21T06:12:42.366Z,10.20
2019-03-21T06:15:17.411Z,10.20
2019-03-21T06:18:09.711Z,10.30
2019-03-21T06:21:01.866Z,10.30
2019-03-21T06:23:48.932Z,10.40
2019-03-21T06:26:41.888Z,10.40
2019-03-21T06:29:12.254Z,10.40
2019-03-21T06:31:42.649Z,10.50
2019-03-21T06:34:13.023Z,10.60
2019-03-21T06:36:43.419Z,10.60
2019-03-21T06:39:13.785Z,10.60
2019-03-21T06:41:44.172Z,10.60
2019-03-21T06:44:15.612Z,10.70
2019-03-21T06:46:49.760Z,10.80
2019-03-21T06:49:18.085Z,10.80
2019-03-21T06:51:48.478Z,10.80
2019-03-21T06:54:18.845Z,10.80
2019-03-21T06:56:49.241Z,10.90
2019-03-21T06:59:19.625Z,10.90
2019-03-21T07:01:50.017Z,10.90
2019-03-21T07:04:20.377Z,10.90
2019-03-21T07:06:50.767Z,10.90
2019-03-21T07:09:21.128Z,11.00
2019-03-21T07:11:51.522Z,11.00
2019-03-21T07:14:21.888Z,11.00
2019-03-21T07:17:00.394Z,11.00
2019-03-21T07:19:24.421Z,11.00
2019-03-21T07:21:55.152Z,11.00
2019-03-21T07:24:25.582Z,11.00
2019-03-21T07:26:55.920Z,11.00
2019-03-21T07:29:26.297Z,11.00
2019-03-21T07:31:56.684Z,11.00
2019-03-21T07:34:27.086Z,11.00
2019-03-21T07:36:57.627Z,11.00
2019-03-21T07:39:28.780Z,11.10
2019-03-21T07:42:01.200Z,11.00
2019-03-21T07:44:31.429Z,11.10
2019-03-21T07:47:12.347Z,11.10
2019-03-21T07:49:33.929Z,11.20
2019-03-21T07:52:04.292Z,11.20
2019-03-21T07:54:34.681Z,11.30
2019-03-21T07:57:05.049Z,11.30
2019-03-21T07:59:35.454Z,11.40
2019-03-21T08:02:05.815Z,11.40
2019-03-21T08:04:36.210Z,11.50
2019-03-21T08:07:06.576Z,11.60
2019-03-21T08:09:39.870Z,11.70
2019-03-21T08:12:10.523Z,11.60
2019-03-21T08:14:41.373Z,11.60
2019-03-21T08:17:11.868Z,11.50
2019-03-21T08:19:42.310Z,11.50
2019-03-21T08:22:12.674Z,11.50
2019-03-21T08:24:43.908Z,11.50
2019-03-21T08:27:14.286Z,11.50
2019-03-21T08:29:56.763Z,11.60
2019-03-21T08:32:27.129Z,11.70
2019-03-21T08:34:57.513Z,11.60
2019-03-21T08:37:27.881Z,11.70
2019-03-21T08:39:58.283Z,11.70
2019-03-21T08:42:28.646Z,11.70
2019-03-21T08:44:59.037Z,11.70
2019-03-21T08:47:29.410Z,11.80
2019-03-21T08:49:59.811Z,11.80
2019-03-21T08:52:30.228Z,11.80
2019-03-21T08:55:00.612Z,11.80
2019-03-21T08:57:32.060Z,11.80
2019-03-21T09:00:02.526Z,11.80
2019-03-21T09:02:32.897Z,11.90
2019-03-21T09:05:03.659Z,11.90
2019-03-21T09:07:34.023Z,12.00
2019-03-21T09:10:08.579Z,12.00
2019-03-21T09:12:38.968Z,12.10
2019-03-21T09:15:10.502Z,12.20
2019-03-21T09:17:40.949Z,12.20
2019-03-21T09:20:12.351Z,12.30
2019-03-21T09:22:43.052Z,12.40
2019-03-21T09:25:13.511Z,12.40
2019-03-21T09:27:43.878Z,12.50
2019-03-21T09:30:16.073Z,12.50
2019-03-21T09:32:46.436Z,12.60
2019-03-21T09:35:16.832Z,12.70
2019-03-21T09:37:47.197Z,12.70
2019-03-21T09:40:17.648Z,12.60
2019-03-21T09:42:48.021Z,12.60
2019-03-21T09:45:18.487Z,12.60
2019-03-21T09:47:48.857Z,12.50
2019-03-21T09:50:29.610Z,12.50
2019-03-21T09:53:00.051Z,12.50
2019-03-21T09:55:30.435Z,12.60
2019-03-21T09:58:00.808Z,12.50
2019-03-21T10:00:36.408Z,12.60
2019-03-21T10:03:08.123Z,12.60
2019-03-21T10:05:38.522Z,12.70
2019-03-21T10:08:08.901Z,12.60
2019-03-21T10:10:39.300Z,12.70
2019-03-21T10:13:09.665Z,12.60
2019-03-21T10:15:40.722Z,12.70
2019-03-21T10:18:11.088Z,12.70
2019-03-21T10:20:41.487Z,12.80
2019-03-21T10:23:12.906Z,12.90
2019-03-21T10:25:43.284Z,12.90
2019-03-21T10:28:16.682Z,12.90
2019-03-21T10:30:47.184Z,13.00
2019-03-21T10:33:17.682Z,13.10
2019-03-21T10:35:48.058Z,13.20
2019-03-21T10:38:22.300Z,13.30
2019-03-21T10:40:52.685Z,13.30
2019-03-21T10:43:23.057Z,13.40
2019-03-21T10:45:53.447Z,13.20
2019-03-21T10:48:23.871Z,13.30
2019-03-21T10:50:54.261Z,13.40
2019-03-21T10:53:24.646Z,13.40
2019-03-21T10:55:55.054Z,13.50
2019-03-21T10:58:25.428Z,13.40
2019-03-21T11:00:55.837Z,13.40
2019-03-21T11:03:26.199Z,13.40
2019-03-21T11:05:56.593Z,13.40
2019-03-21T11:08:31.352Z,13.50
2019-03-21T11:11:02.694Z,13.50
2019-03-21T11:13:33.380Z,13.60
2019-03-21T11:16:03.740Z,13.50
2019-03-21T11:18:36.310Z,13.50
2019-03-21T11:21:06.381Z,13.70
2019-03-21T11:23:36.776Z,13.80
2019-03-21T11:26:07.197Z,13.80
2019-03-21T11:28:40.604Z,13.80
2019-03-21T11:31:11.009Z,13.70
2019-03-21T11:33:41.440Z,13.60
2019-03-21T11:36:11.760Z,13.40
2019-03-21T11:38:42.157Z,13.40
2019-03-21T11:41:12.544Z,13.40
2019-03-21T11:43:42.930Z,13.30
2019-03-21T11:46:13.384Z,13.40
2019-03-21T11:48:43.760Z,13.40
2019-03-21T11:51:14.135Z,13.40
2019-03-21T11:53:44.517Z,13.40
2019-03-21T11:56:16.013Z,13.40
2019-03-21T11:58:46.353Z,13.40
2019-03-21T12:01:16.732Z,13.50
2019-03-21T12:03:47.120Z,13.40
2019-03-21T12:06:17.490Z,13.30
2019-03-21T12:08:47.876Z,13.30
2019-03-21T12:11:18.249Z,13.40
2019-03-21T12:13:48.651Z,13.40
2019-03-21T12:16:19.023Z,13.40
2019-03-21T12:18:49.436Z,13.30
2019-03-21T12:21:19.801Z,13.30
2019-03-21T12:23:50.207Z,13.30
2019-03-21T12:26:20.577Z,13.30
2019-03-21T12:28:50.974Z,13.30
2019-03-21T12:31:21.350Z,13.20
2019-03-21T12:33:51.747Z,13.30
2019-03-21T12:36:22.113Z,13.40
2019-03-21T12:38:52.531Z,13.40
2019-03-21T12:41:22.893Z,13.40
2019-03-21T12:43:53.288Z,13.50
2019-03-21T12:46:23.664Z,13.60
2019-03-21T12:48:54.072Z,13.70
2019-03-21T12:51:24.437Z,13.70
2019-03-21T12:53:54.826Z,13.70
2019-03-21T12:56:25.196Z,13.90
2019-03-21T12:58:55.584Z,13.80
2019-03-21T13:01:26.049Z,13.80
2019-03-21T13:03:56.450Z,13.80
2019-03-21T13:06:26.905Z,13.80
2019-03-21T13:08:57.293Z,13.80
2019-03-21T13:11:27.752Z,13.90
2019-03-21T13:13:58.191Z,13.80
2019-03-21T13:16:28.557Z,13.90
2019-03-21T13:18:58.950Z,13.90
2019-03-21T13:21:29.322Z,14.00
2019-03-21T13:23:59.714Z,14.00
2019-03-21T13:26:30.088Z,14.20
2019-03-21T13:29:00.482Z,14.30
2019-03-21T13:31:30.854Z,14.30
2019-03-21T13:34:01.246Z,14.30
2019-03-21T13:36:44.048Z,14.30
2019-03-21T13:39:26.813Z,14.30
2019-03-21T13:41:57.194Z,14.30
2019-03-21T13:44:27.586Z,14.20
2019-03-21T13:46:57.960Z,14.30
2019-03-21T13:49:29.429Z,14.30
2019-03-21T13:51:59.794Z,14.20
2019-03-21T13:54:30.190Z,14.20
2019-03-21T13:57:00.556Z,14.20
2019-03-21T13:59:31.060Z,14.10
2019-03-21T14:02:01.428Z,14.10
2019-03-21T14:04:31.820Z,14.10
2019-03-21T14:07:02.206Z,14.20
2019-03-21T14:09:32.604Z,14.30
2019-03-21T14:12:03.050Z,14.20
2019-03-21T14:14:33.411Z,14.10
2019-03-21T14:17:03.946Z,14.10
2019-03-21T14:19:34.343Z,14.00
2019-03-21T14:22:04.715Z,14.10
2019-03-21T14:24:35.101Z,14.20
2019-03-21T14:27:05.482Z,14.20
2019-03-21T14:29:35.869Z,14.40
2019-03-21T14:32:07.207Z,14.20
2019-03-21T14:34:37.598Z,14.10
2019-03-21T14:37:07.966Z,14.10
2019-03-21T14:39:38.367Z,14.20
2019-03-21T14:42:21.642Z,14.10
2019-03-21T14:44:52.041Z,14.10
2019-03-21T14:47:23.379Z,14.10
2019-03-21T14:49:53.776Z,14.00
2019-03-21T14:52:24.143Z,14.00
2019-03-21T14:54:54.533Z,14.00
2019-03-21T14:57:24.905Z,14.10
2019-03-21T14:59:55.295Z,14.10
2019-03-21T15:02:25.660Z,14.10
2019-03-21T15:04:56.050Z,14.20
2019-03-21T15:07:26.430Z,14.20
2019-03-21T15:09:56.827Z,14.20
2019-03-21T15:12:29.651Z,14.30
2019-03-21T15:14:59.282Z,14.30
2019-03-21T15:17:29.658Z,14.50
2019-03-21T15:20:00.176Z,14.60
2019-03-21T15:22:30.734Z,14.60
2019-03-21T15:25:01.121Z,14.60
2019-03-21T15:27:31.493Z,14.50
2019-03-21T15:30:01.970Z,14.40
2019-03-21T15:32:32.529Z,14.40
2019-03-21T15:35:02.998Z,14.30
2019-03-21T15:37:33.369Z,14.20
2019-03-21T15:40:05.577Z,14.10
2019-03-21T15:42:36.032Z,14.00
2019-03-21T15:45:22.382Z,14.00
2019-03-21T15:47:47.226Z,13.90
2019-03-21T15:50:38.400Z,13.80
2019-03-21T15:53:09.066Z,13.70
2019-03-21T15:55:39.468Z,13.80
2019-03-21T15:58:11.036Z,13.70
2019-03-21T16:00:43.439Z,13.60
2019-03-21T16:03:14.468Z,13.40
2019-03-21T16:05:44.860Z,13.30
2019-03-21T16:08:15.306Z,13.10
2019-03-21T16:10:45.695Z,12.90
2019-03-21T16:13:16.179Z,12.90
2019-03-21T16:15:46.588Z,12.70
2019-03-21T16:18:19.902Z,12.60
2019-03-21T16:20:50.285Z,12.50
2019-03-21T16:23:21.939Z,12.50
2019-03-21T16:25:52.332Z,12.40
2019-03-21T16:28:24.044Z,12.30
2019-03-21T16:30:54.426Z,12.20
2019-03-21T16:33:24.976Z,12.10
2019-03-21T16:35:55.360Z,12.10
2019-03-21T16:38:26.028Z,12.00
2019-03-21T16:40:56.392Z,11.90
2019-03-21T16:43:28.073Z,11.90
2019-03-21T16:45:58.426Z,11.80
2019-03-21T16:48:28.932Z,11.70
2019-03-21T16:50:59.294Z,11.70
2019-03-21T16:53:29.686Z,11.60
2019-03-21T16:56:00.075Z,11.50
2019-03-21T16:58:31.248Z,11.40
2019-03-21T17:01:01.640Z,11.40
2019-03-21T17:03:33.205Z,11.20
2019-03-21T17:06:03.566Z,11.20
2019-03-21T17:08:33.962Z,11.10
2019-03-21T17:11:04.416Z,10.90
2019-03-21T17:13:34.766Z,10.80
2019-03-21T17:16:05.870Z,10.70
2019-03-21T17:18:36.411Z,10.60
2019-03-21T17:21:09.373Z,10.50
2019-03-21T17:23:38.868Z,10.40
2019-03-21T17:26:09.281Z,10.30
2019-03-21T17:28:39.670Z,10.20
2019-03-21T17:31:10.120Z,10.10
2019-03-21T17:33:40.494Z,10.00
2019-03-21T17:36:10.851Z,9.90
2019-03-21T17:38:41.231Z,9.80
2019-03-21T17:41:11.595Z,9.70
2019-03-21T17:43:41.973Z,9.60
2019-03-21T17:46:12.334Z,9.60
2019-03-21T17:48:42.720Z,9.50
2019-03-21T17:51:13.080Z,9.40
2019-03-21T17:53:43.462Z,9.30
2019-03-21T17:56:13.824Z,9.20
2019-03-21T17:58:44.280Z,9.10
2019-03-21T18:01:14.878Z,9.00
2019-03-21T18:03:45.429Z,9.00
2019-03-21T18:06:15.793Z,8.90
2019-03-21T18:08:46.172Z,8.90
2019-03-21T18:11:16.532Z,8.80
2019-03-21T18:13:46.919Z,8.80
2019-03-21T18:16:18.717Z,8.70
2019-03-21T18:18:49.317Z,8.70
2019-03-21T18:21:20.643Z,8.60
2019-03-21T18:23:51.093Z,8.60
2019-03-21T18:26:34.052Z,8.50
2019-03-21T18:29:04.430Z,8.50
2019-03-21T18:31:34.786Z,8.40
2019-03-21T18:34:05.347Z,8.30
2019-03-21T18:36:35.708Z,8.30
2019-03-21T18:39:08.031Z,8.20
2019-03-21T18:41:38.518Z,8.20
2019-03-21T18:44:08.901Z,8.20
2019-03-21T18:46:39.257Z,8.20
2019-03-21T18:49:09.740Z,8.10
2019-03-21T18:51:40.117Z,8.10
2019-03-21T18:54:10.500Z,8.00
2019-03-21T18:56:40.861Z,8.00
2019-03-21T18:59:11.248Z,7.90
2019-03-21T19:01:41.603Z,7.90
2019-03-21T19:04:11.989Z,7.90
2019-03-21T19:06:42.395Z,7.80
2019-03-21T19:09:12.774Z,7.80
2019-03-21T19:11:43.132Z,7.80
2019-03-21T19:14:13.521Z,7.70
2019-03-21T19:16:44.228Z,7.70
2019-03-21T19:19:14.638Z,7.70
2019-03-21T19:21:45.013Z,7.70
2019-03-21T19:24:15.376Z,7.60
2019-03-21T19:26:45.758Z,7.60
2019-03-21T19:29:16.118Z,7.60
2019-03-21T19:31:46.500Z,7.50
2019-03-21T19:34:16.862Z,7.50
2019-03-21T19:36:47.257Z,7.40
2019-03-21T19:39:17.626Z,7.40
2019-03-21T19:41:48.008Z,7.40
2019-03-21T19:44:18.364Z,7.30
2019-03-21T19:46:48.754Z,7.30
2019-03-21T19:49:19.116Z,7.20
2019-03-21T19:51:49.499Z,7.20
2019-03-21T19:54:19.867Z,7.20
2019-03-21T19:56:50.262Z,7.10
2019-03-21T19:59:20.636Z,7.10
2019-03-21T20:01:51.018Z,7.10
2019-03-21T20:04:21.471Z,7.00
2019-03-21T20:06:51.857Z,7.00
2019-03-21T20:09:22.234Z,7.00
2019-03-21T20:11:52.623Z,6.90
2019-03-21T20:14:23.004Z,6.90
2019-03-21T20:16:53.395Z,6.90
2019-03-21T20:19:23.744Z,6.80
2019-03-21T20:21:54.136Z,6.80
2019-03-21T20:24:24.864Z,6.80
2019-03-21T20:26:55.247Z,6.70
2019-03-21T20:29:25.600Z,6.70
2019-03-21T20:31:55.976Z,6.60
2019-03-21T20:34:27.311Z,6.60
2019-03-21T20:36:57.766Z,6.60
2019-03-21T20:39:28.124Z,6.60
2019-03-21T20:41:58.500Z,6.60
2019-03-21T20:44:28.862Z,6.50
2019-03-21T20:46:59.256Z,6.50
2019-03-21T20:49:29.626Z,6.50
2019-03-21T20:52:00.003Z,6.50
2019-03-21T20:54:30.369Z,6.40
2019-03-21T20:57:00.747Z,6.40
2019-03-21T20:59:31.111Z,6.40
2019-03-21T21:02:03.052Z,6.30
2019-03-21T21:04:34.707Z,6.30
2019-03-21T21:07:05.094Z,6.30
2019-03-21T21:09:35.481Z,6.30
2019-03-21T21:12:05.935Z,6.30
2019-03-21T21:14:36.287Z,6.20
2019-03-21T21:17:06.678Z,6.20
2019-03-21T21:19:37.051Z,6.20
2019-03-21T21:22:07.431Z,6.20
2019-03-21T21:24:37.797Z,6.20
2019-03-21T21:27:08.170Z,6.10
2019-03-21T21:29:38.530Z,6.10
2019-03-21T21:32:08.945Z,6.10
2019-03-21T21:34:39.953Z,6.10
2019-03-21T21:37:10.477Z,6.00
2019-03-21T21:39:40.836Z,6.00
2019-03-21T21:42:24.239Z,6.00
2019-03-21T21:44:54.627Z,6.00
2019-03-21T21:47:25.014Z,6.00
2019-03-21T21:49:55.457Z,5.90
2019-03-21T21:52:25.843Z,5.90
2019-03-21T21:54:59.113Z,5.90
2019-03-21T21:57:32.432Z,5.90
2019-03-21T22:00:03.101Z,5.90
2019-03-21T22:02:33.754Z,5.90
2019-03-21T22:05:07.564Z,5.90
2019-03-21T22:07:38.130Z,5.80
2019-03-21T22:10:10.402Z,5.80
2019-03-21T22:12:40.940Z,5.80
2019-03-21T22:15:16.828Z,5.80
2019-03-21T22:17:47.215Z,5.70
2019-03-21T22:20:18.084Z,5.70
2019-03-21T22:22:48.514Z,5.70
2019-03-21T22:25:18.871Z,5.70
2019-03-21T22:27:49.247Z,5.70
2019-03-21T22:30:20.241Z,5.70
2019-03-21T22:32:50.623Z,5.60
2019-03-21T22:35:20.979Z,5.60
2019-03-21T22:37:51.359Z,5.60
2019-03-21T22:40:21.719Z,5.60
2019-03-21T22:42:52.114Z,5.60
2019-03-21T22:45:22.468Z,5.50
2019-03-21T22:47:52.851Z,5.50
2019-03-21T22:50:23.210Z,5.50
2019-03-21T22:52:53.605Z,5.50
2019-03-21T22:55:23.969Z,5.50
2019-03-21T22:57:54.351Z,5.50
2019-03-21T23:00:29.916Z,5.40
2019-03-21T23:03:02.369Z,5.40
2019-03-21T23:05:36.058Z,5.40
2019-03-21T23:08:06.436Z,5.40
2019-03-21T23:10:36.794Z,5.40
2019-03-21T23:13:07.147Z,5.30
2019-03-21T23:15:37.708Z,5.30
2019-03-21T23:18:08.237Z,5.30
2019-03-21T23:20:38.621Z,5.30
2019-03-21T23:23:08.979Z,5.30
2019-03-21T23:25:39.367Z,5.20
2019-03-21T23:28:09.737Z,5.20
2019-03-21T23:30:40.120Z,5.20
2019-03-21T23:33:10.477Z,5.20
2019-03-21T23:35:40.867Z,5.20
2019-03-21T23:38:11.230Z,5.20
2019-03-21T23:40:41.612Z,5.10
2019-03-21T23:43:11.966Z,5.10
2019-03-21T23:45:42.353Z,5.10
2019-03-21T23:48:12.742Z,5.10
2019-03-21T23:50:43.131Z,5.00
2019-03-21T23:53:13.512Z,5.00
2019-03-21T23:55:43.897Z,5.00
2019-03-21T23:58:14.265Z,5.00
